createdAt,value
2023-07-20T00:03:26.415Z,1.45
2023-07-20T00:08:28.449Z,1.40
2023-07-20T00:13:30.188Z,1.75
2023-07-20T00:18:31.857Z,1.55
2023-07-20T00:23:36.076Z,1.55
2023-07-20T00:28:38.238Z,1.35
2023-07-20T00:33:39.672Z,1.30
2023-07-20T00:38:42.043Z,1.30
2023-07-20T00:43:43.700Z,1.50
2023-07-20T00:48:45.854Z,1.30
2023-07-20T00:53:47.588Z,1.90
2023-07-20T00:58:50.061Z,1.42
2023-07-20T01:03:51.576Z,2.03
2023-07-20T01:09:10.634Z,1.40
2023-07-20T01:14:13.064Z,1.40
2023-07-20T01:19:15.914Z,1.23
2023-07-20T01:24:39.196Z,1.55
2023-07-20T01:29:53.152Z,2.00
2023-07-20T01:34:56.660Z,1.60
2023-07-20T01:39:59.368Z,1.27
2023-07-20T01:45:00.887Z,1.67
2023-07-20T01:50:02.366Z,2.35
2023-07-20T01:55:05.735Z,2.88
2023-07-20T02:05:12.271Z,1.92
2023-07-20T02:10:13.704Z,1.77
2023-07-20T02:15:17.505Z,1.60
2023-07-20T02:20:20.350Z,2.03
2023-07-20T02:25:22.122Z,2.00
2023-07-20T02:30:24.030Z,1.58
2023-07-20T02:35:25.560Z,1.73
2023-07-20T02:40:27.317Z,1.58
2023-07-20T02:45:28.946Z,1.80
2023-07-20T02:50:30.358Z,1.67
2023-07-20T02:55:31.767Z,2.22
2023-07-20T03:00:34.038Z,1.80
2023-07-20T03:05:35.477Z,1.67
2023-07-20T03:10:42.315Z,1.77
2023-07-20T03:15:44.113Z,1.65
2023-07-20T03:20:46.127Z,1.98
2023-07-20T03:25:47.540Z,1.90
2023-07-20T03:30:57.003Z,1.70
2023-07-20T03:35:59.194Z,1.88
2023-07-20T03:41:01.794Z,1.70
2023-07-20T03:46:08.644Z,2.10
2023-07-20T03:51:10.106Z,1.80
2023-07-20T03:56:13.487Z,2.33
2023-07-20T04:01:14.981Z,2.80
2023-07-20T04:06:17.867Z,2.08
2023-07-20T04:11:19.530Z,1.40
2023-07-20T04:16:21.910Z,2.78
2023-07-20T04:21:25.160Z,1.70
2023-07-20T04:26:26.579Z,1.95
2023-07-20T04:31:28.198Z,1.80
2023-07-20T04:36:29.695Z,2.30
2023-07-20T04:41:33.654Z,2.10
2023-07-20T04:46:36.165Z,1.92
2023-07-20T04:51:37.629Z,1.77
2023-07-20T04:56:39.848Z,1.90
2023-07-20T05:01:43.114Z,2.03
2023-07-20T05:06:44.858Z,1.92
2023-07-20T05:11:49.219Z,1.98
2023-07-20T05:16:51.099Z,2.00
2023-07-20T05:21:52.946Z,2.10
2023-07-20T05:26:55.675Z,1.83
2023-07-20T05:31:57.843Z,2.27
2023-07-20T05:36:59.566Z,2.22
2023-07-20T05:42:01.293Z,2.10
2023-07-20T05:47:03.760Z,2.10
2023-07-20T05:52:06.268Z,2.50
2023-07-20T05:57:08.299Z,2.80
2023-07-20T06:02:10.267Z,4.80
2023-07-20T06:07:11.947Z,1.92
2023-07-20T06:12:13.719Z,2.03
2023-07-20T06:17:15.735Z,1.92
2023-07-20T06:22:17.501Z,1.88
2023-07-20T06:27:19.022Z,2.00
2023-07-20T06:32:20.552Z,2.10
2023-07-20T06:37:22.257Z,1.75
2023-07-20T06:43:48.613Z,2.88
2023-07-20T06:47:48.610Z,1.58
2023-07-20T06:52:50.178Z,1.85
2023-07-20T06:57:52.870Z,1.33
2023-07-20T07:02:54.602Z,2.33
2023-07-20T07:07:56.057Z,1.75
2023-07-20T07:12:57.740Z,1.88
2023-07-20T07:18:00.770Z,1.70
2023-07-20T07:23:02.301Z,1.70
2023-07-20T07:28:05.340Z,1.67
2023-07-20T07:33:06.908Z,1.40
2023-07-20T07:38:19.360Z,1.80
2023-07-20T07:43:30.226Z,2.15
2023-07-20T07:48:31.800Z,2.08
2023-07-20T07:53:33.898Z,1.90
2023-07-20T07:58:35.669Z,1.95
2023-07-20T08:03:38.648Z,2.08
2023-07-20T08:08:40.406Z,1.55
2023-07-20T08:13:43.582Z,1.77
2023-07-20T08:18:45.698Z,1.73
2023-07-20T08:23:47.363Z,1.77
2023-07-20T08:28:49.300Z,1.33
2023-07-20T08:33:51.672Z,2.50
2023-07-20T08:38:53.506Z,1.60
2023-07-20T08:43:56.455Z,1.92
2023-07-20T08:48:58.861Z,1.40
2023-07-20T08:54:01.924Z,1.27
2023-07-20T08:59:03.990Z,1.60
2023-07-20T09:04:05.935Z,1.50
2023-07-20T09:09:07.425Z,1.60
2023-07-20T09:14:10.698Z,1.33
2023-07-20T09:24:14.101Z,1.20
2023-07-20T09:29:19.477Z,1.27
2023-07-20T09:54:39.798Z,1.40
2023-07-20T09:59:42.161Z,1.40
2023-07-20T10:04:44.871Z,1.40
2023-07-20T10:09:47.037Z,1.30
2023-07-20T10:15:02.015Z,1.37
2023-07-20T10:20:06.435Z,1.30
2023-07-20T10:25:08.492Z,1.17
2023-07-20T10:30:10.678Z,1.13
2023-07-20T10:35:17.234Z,1.40
2023-07-20T10:40:35.316Z,1.55
2023-07-20T10:45:39.762Z,1.67
2023-07-20T10:50:41.680Z,1.38
2023-07-20T10:55:45.030Z,1.30
2023-07-20T11:01:04.778Z,1.67
2023-07-20T11:06:24.969Z,2.13
2023-07-20T11:11:28.955Z,1.40
2023-07-20T11:16:39.147Z,1.40
2023-07-20T11:21:59.704Z,0.90
2023-07-20T11:27:03.866Z,1.00
2023-07-20T11:32:06.477Z,1.13
2023-07-20T11:42:14.019Z,1.23
2023-07-20T11:47:15.685Z,1.17
2023-07-20T11:52:18.695Z,1.55
2023-07-20T11:57:21.915Z,1.25
2023-07-20T12:02:27.406Z,1.40
2023-07-20T12:07:30.107Z,1.15
2023-07-20T12:12:45.381Z,1.00
2023-07-20T12:17:51.534Z,1.23
2023-07-20T12:22:54.346Z,1.10
2023-07-20T12:27:56.309Z,1.10
2023-07-20T12:32:58.410Z,1.30
2023-07-20T12:38:00.980Z,1.00
2023-07-20T12:43:03.086Z,0.60
2023-07-20T12:48:04.830Z,1.23
2023-07-20T12:53:06.357Z,1.30
2023-07-20T12:58:09.180Z,0.90
2023-07-20T13:08:31.352Z,0.80
2023-07-20T13:13:34.903Z,0.93
2023-07-20T13:18:37.939Z,1.10
2023-07-20T13:23:39.707Z,1.00
2023-07-20T13:28:41.741Z,0.98
2023-07-20T13:33:43.311Z,0.70
2023-07-20T13:38:44.761Z,0.60
2023-07-20T13:43:46.659Z,0.80
2023-07-20T13:53:56.819Z,0.80
2023-07-20T13:58:59.281Z,0.70
2023-07-20T14:04:05.102Z,0.52
2023-07-20T14:09:07.564Z,0.70
2023-07-20T14:14:09.115Z,0.57
2023-07-20T14:24:12.992Z,0.80
2023-07-20T14:29:14.518Z,0.50
2023-07-20T14:34:16.506Z,0.85
2023-07-20T14:39:18.792Z,0.57
2023-07-20T14:44:21.826Z,0.60
2023-07-20T14:49:23.400Z,0.50
2023-07-20T14:54:25.119Z,0.50
2023-07-20T14:59:26.822Z,0.68
2023-07-20T15:04:29.194Z,0.60
2023-07-20T15:09:30.706Z,0.45
2023-07-20T15:14:32.236Z,0.82
2023-07-20T15:19:35.471Z,0.50
2023-07-20T15:24:37.500Z,0.40
2023-07-20T15:29:38.992Z,0.70
2023-07-20T15:34:40.380Z,0.80
2023-07-20T15:39:42.834Z,0.55
2023-07-20T15:44:44.303Z,0.40
2023-07-20T15:49:46.839Z,0.50
2023-07-20T15:54:49.000Z,0.68
2023-07-20T15:59:50.554Z,0.60
2023-07-20T16:04:54.084Z,0.50
2023-07-20T16:09:59.343Z,0.40
2023-07-20T16:20:05.991Z,0.50
2023-07-20T16:25:08.040Z,0.60
2023-07-20T16:30:09.644Z,0.47
2023-07-20T16:35:12.077Z,0.55
2023-07-20T16:45:20.709Z,0.52
2023-07-20T16:50:22.952Z,0.70
2023-07-20T16:55:24.917Z,0.50
2023-07-20T17:00:26.753Z,0.93
2023-07-20T17:05:28.362Z,1.13
2023-07-20T17:10:29.819Z,1.20
2023-07-20T17:15:34.857Z,1.50
2023-07-20T17:31:02.265Z,1.60
2023-07-20T17:41:08.940Z,1.08
2023-07-20T17:51:15.302Z,1.40
2023-07-20T17:56:16.921Z,1.67
2023-07-20T18:01:18.302Z,1.15
2023-07-20T18:06:19.988Z,1.70
2023-07-20T18:11:21.574Z,1.35
2023-07-20T18:16:23.033Z,1.23
2023-07-20T18:21:24.811Z,1.50
2023-07-20T18:26:26.525Z,1.83
2023-07-20T18:31:28.204Z,1.50
2023-07-20T18:36:29.883Z,1.50
2023-07-20T18:41:31.228Z,1.50
2023-07-20T18:46:32.610Z,1.63
2023-07-20T18:51:34.355Z,1.42
2023-07-20T18:56:35.754Z,1.40
2023-07-20T19:01:37.236Z,1.85
2023-07-20T19:06:38.661Z,1.77
2023-07-20T19:16:44.772Z,2.10
2023-07-20T19:21:46.112Z,1.55
2023-07-20T19:26:47.560Z,1.13
2023-07-20T19:31:48.960Z,1.55
2023-07-20T19:36:50.364Z,1.50
2023-07-20T19:41:51.714Z,1.95
2023-07-20T19:46:53.260Z,1.85
2023-07-20T19:51:54.748Z,2.10
2023-07-20T19:56:56.538Z,2.00
2023-07-20T20:01:57.987Z,1.65
2023-07-20T20:07:00.889Z,1.45
2023-07-20T20:12:02.242Z,2.00
2023-07-20T20:17:04.706Z,2.20
2023-07-20T20:22:07.359Z,1.88
2023-07-20T20:27:08.701Z,2.00
2023-07-20T20:32:11.906Z,2.00
2023-07-20T20:42:15.327Z,2.10
2023-07-20T20:47:16.672Z,1.48
2023-07-20T20:52:18.336Z,1.88
2023-07-20T20:57:19.853Z,2.45
2023-07-20T21:02:21.594Z,1.98
2023-07-20T21:07:23.154Z,1.50
2023-07-20T21:12:24.530Z,1.83
2023-07-20T21:17:27.521Z,1.63
2023-07-20T21:22:29.068Z,2.28
2023-07-20T21:27:30.406Z,2.10
2023-07-20T21:32:31.844Z,1.83
2023-07-20T21:37:33.318Z,2.28
2023-07-20T21:42:34.774Z,2.30
2023-07-20T21:47:36.259Z,2.88
2023-07-20T21:52:37.692Z,2.78
2023-07-20T21:57:39.041Z,2.08
2023-07-20T22:02:40.730Z,2.25
2023-07-20T22:07:42.447Z,1.95
2023-07-20T22:12:43.841Z,1.75
2023-07-20T22:17:45.256Z,1.80
2023-07-20T22:22:46.671Z,2.05
2023-07-20T22:27:48.352Z,1.73
2023-07-20T22:32:49.727Z,2.08
2023-07-20T22:37:51.562Z,1.70
2023-07-20T22:42:53.028Z,1.95
2023-07-20T22:47:54.767Z,2.20
2023-07-20T22:52:56.265Z,2.45
2023-07-20T22:57:59.358Z,1.83
2023-07-20T23:03:00.856Z,1.90
2023-07-20T23:08:02.345Z,1.77
2023-07-20T23:13:03.650Z,1.70
2023-07-20T23:18:05.059Z,1.95
2023-07-20T23:23:06.608Z,1.80
2023-07-20T23:28:08.075Z,1.73
2023-07-20T23:33:10.251Z,2.20
2023-07-20T23:38:12.225Z,1.80
2023-07-20T23:43:13.710Z,2.30
2023-07-20T23:48:15.110Z,3.28
2023-07-20T23:53:16.433Z,2.00
2023-07-20T23:58:17.747Z,1.55
